createdAt,value
2019-01-10T00:01:12.846Z,-1.70
2019-01-10T00:03:42.284Z,-1.70
2019-01-10T00:06:11.663Z,-1.70
2019-01-10T00:08:40.819Z,-1.70
2019-01-10T00:11:10.030Z,-1.70
2019-01-10T00:13:39.187Z,-1.70
2019-01-10T00:16:09.102Z,-1.80
2019-01-10T00:18:38.855Z,-1.80
2019-01-10T00:21:08.484Z,-1.80
2019-01-10T00:23:38.435Z,-1.80
2019-01-10T00:26:07.568Z,-1.80
2019-01-10T00:28:36.848Z,-1.80
2019-01-10T00:31:06.039Z,-1.70
2019-01-10T00:33:35.186Z,-1.70
2019-01-10T00:36:04.679Z,-1.70
2019-01-10T00:38:34.155Z,-1.70
2019-01-10T00:41:04.078Z,-1.70
2019-01-10T00:43:33.760Z,-1.70
2019-01-10T00:46:02.850Z,-1.70
2019-01-10T00:48:32.286Z,-1.70
2019-01-10T00:51:01.446Z,-1.70
2019-01-10T00:53:31.465Z,-1.70
2019-01-10T00:56:01.187Z,-1.60
2019-01-10T00:58:30.867Z,-1.60
2019-01-10T01:01:00.508Z,-1.60
2019-01-10T01:03:30.290Z,-1.60
2019-01-10T01:05:59.671Z,-1.60
2019-01-10T01:08:29.084Z,-1.60
2019-01-10T01:10:58.459Z,-1.60
2019-01-10T01:13:27.848Z,-1.60
2019-01-10T01:15:57.239Z,-1.60
2019-01-10T01:18:26.971Z,-1.60
2019-01-10T01:20:56.608Z,-1.60
2019-01-10T01:23:26.027Z,-1.60
2019-01-10T01:25:55.443Z,-1.50
2019-01-10T01:28:24.579Z,-1.60
2019-01-10T01:30:53.950Z,-1.60
2019-01-10T01:33:23.926Z,-1.60
2019-01-10T01:35:53.314Z,-1.50
2019-01-10T01:38:22.786Z,-1.50
2019-01-10T01:40:52.484Z,-1.50
2019-01-10T01:43:21.910Z,-1.50
2019-01-10T01:45:51.614Z,-1.50
2019-01-10T01:48:21.430Z,-1.50
2019-01-10T01:50:51.127Z,-1.50
2019-01-10T01:53:20.783Z,-1.50
2019-01-10T01:55:49.896Z,-1.50
2019-01-10T01:58:19.296Z,-1.50
2019-01-10T02:00:48.666Z,-1.50
2019-01-10T02:03:18.079Z,-1.50
2019-01-10T02:05:47.542Z,-1.50
2019-01-10T02:08:16.976Z,-1.50
2019-01-10T02:10:46.616Z,-1.50
2019-01-10T02:13:16.863Z,-1.50
2019-01-10T02:15:46.203Z,-1.50
2019-01-10T02:18:15.314Z,-1.50
2019-01-10T02:20:44.463Z,-1.50
2019-01-10T02:23:13.591Z,-1.50
2019-01-10T02:25:42.742Z,-1.50
2019-01-10T02:28:12.403Z,-1.50
2019-01-10T02:30:42.519Z,-1.50
2019-01-10T02:33:11.903Z,-1.50
2019-01-10T02:35:41.664Z,-1.50
2019-01-10T02:38:11.391Z,-1.50
2019-01-10T02:40:41.347Z,-1.50
2019-01-10T02:43:10.468Z,-1.50
2019-01-10T02:45:40.153Z,-1.50
2019-01-10T02:48:09.664Z,-1.50
2019-01-10T02:50:39.956Z,-1.50
2019-01-10T02:53:09.254Z,-1.50
2019-01-10T02:55:38.951Z,-1.50
2019-01-10T02:58:08.354Z,-1.50
2019-01-10T03:00:38.169Z,-1.50
2019-01-10T03:03:07.659Z,-1.50
2019-01-10T03:05:36.874Z,-1.50
2019-01-10T03:08:05.990Z,-1.50
2019-01-10T03:10:35.156Z,-1.50
2019-01-10T03:13:04.621Z,-1.50
2019-01-10T03:15:33.855Z,-1.50
2019-01-10T03:18:02.979Z,-1.50
2019-01-10T03:20:32.391Z,-1.50
2019-01-10T03:23:01.521Z,-1.50
2019-01-10T03:25:31.362Z,-1.50
2019-01-10T03:28:01.029Z,-1.60
2019-01-10T03:30:30.221Z,-1.50
2019-01-10T03:32:59.456Z,-1.50
2019-01-10T03:35:29.513Z,-1.50
2019-01-10T03:37:58.979Z,-1.50
2019-01-10T03:40:28.132Z,-1.50
2019-01-10T03:42:57.807Z,-1.50
2019-01-10T03:45:27.236Z,-1.50
2019-01-10T03:47:56.375Z,-1.50
2019-01-10T03:50:25.800Z,-1.50
2019-01-10T03:52:55.013Z,-1.50
2019-01-10T03:55:24.433Z,-1.50
2019-01-10T03:57:53.891Z,-1.40
2019-01-10T04:00:24.718Z,-1.40
2019-01-10T04:02:54.194Z,-1.40
2019-01-10T04:05:24.043Z,-1.40
2019-01-10T04:07:53.711Z,-1.40
2019-01-10T04:10:23.134Z,-1.40
2019-01-10T04:12:52.529Z,-1.40
2019-01-10T04:15:22.019Z,-1.40
2019-01-10T04:17:51.404Z,-1.40
2019-01-10T04:20:21.161Z,-1.40
2019-01-10T04:22:50.281Z,-1.40
2019-01-10T04:25:19.438Z,-1.40
2019-01-10T04:27:49.143Z,-1.40
2019-01-10T04:30:20.463Z,-1.40
2019-01-10T04:32:49.959Z,-1.40
2019-01-10T04:35:19.216Z,-1.30
2019-01-10T04:37:48.406Z,-1.40
2019-01-10T04:40:21.674Z,-1.30
2019-01-10T04:42:51.449Z,-1.30
2019-01-10T04:45:20.592Z,-1.30
2019-01-10T04:47:49.809Z,-1.30
2019-01-10T04:50:19.292Z,-1.30
2019-01-10T04:52:48.487Z,-1.30
2019-01-10T04:55:17.908Z,-1.30
2019-01-10T04:57:47.445Z,-1.30
2019-01-10T05:00:21.942Z,-1.30
2019-01-10T05:02:51.880Z,-1.30
2019-01-10T05:05:21.376Z,-1.30
2019-01-10T05:07:51.304Z,-1.30
2019-01-10T05:10:20.567Z,-1.30
2019-01-10T05:12:50.059Z,-1.30
2019-01-10T05:15:19.813Z,-1.30
2019-01-10T05:17:48.932Z,-1.30
2019-01-10T05:20:19.739Z,-1.30
2019-01-10T05:22:48.911Z,-1.20
2019-01-10T05:25:18.372Z,-1.30
2019-01-10T05:27:47.762Z,-1.20
2019-01-10T05:30:24.852Z,-1.30
2019-01-10T05:32:55.035Z,-1.20
2019-01-10T05:35:24.917Z,-1.20
2019-01-10T05:37:54.144Z,-1.30
2019-01-10T05:40:23.584Z,-1.30
2019-01-10T05:42:53.216Z,-1.20
2019-01-10T05:45:22.693Z,-1.20
2019-01-10T05:47:52.247Z,-1.20
2019-01-10T05:50:21.368Z,-1.20
2019-01-10T05:52:50.542Z,-1.30
2019-01-10T05:55:21.917Z,-1.20
2019-01-10T05:57:51.427Z,-1.20
2019-01-10T06:00:25.924Z,-1.20
2019-01-10T06:02:55.082Z,-1.20
2019-01-10T06:05:24.479Z,-1.20
2019-01-10T06:07:54.180Z,-1.20
2019-01-10T06:10:30.835Z,-1.20
2019-01-10T06:13:00.130Z,-1.20
2019-01-10T06:15:30.084Z,-1.20
2019-01-10T06:17:59.576Z,-1.20
2019-01-10T06:20:29.059Z,-1.20
2019-01-10T06:22:58.223Z,-1.20
2019-01-10T06:25:27.347Z,-1.20
2019-01-10T06:27:56.577Z,-1.20
2019-01-10T06:30:26.298Z,-1.20
2019-01-10T06:32:55.775Z,-1.20
2019-01-10T06:35:25.164Z,-1.20
2019-01-10T06:37:54.570Z,-1.20
2019-01-10T06:40:24.022Z,-1.20
2019-01-10T06:42:53.520Z,-1.20
2019-01-10T06:45:22.982Z,-1.20
2019-01-10T06:47:52.339Z,-1.20
2019-01-10T06:50:21.454Z,-1.20
2019-01-10T06:52:50.633Z,-1.20
2019-01-10T06:55:20.522Z,-1.20
2019-01-10T06:57:49.943Z,-1.20
2019-01-10T07:00:21.195Z,-1.20
2019-01-10T07:02:50.434Z,-1.30
2019-01-10T07:05:20.370Z,-1.30
2019-01-10T07:07:56.237Z,-1.30
2019-01-10T07:10:23.216Z,-1.30
2019-01-10T07:12:53.749Z,-1.30
2019-01-10T07:15:23.143Z,-1.30
2019-01-10T07:17:52.577Z,-1.30
2019-01-10T07:20:21.799Z,-1.30
2019-01-10T07:22:52.152Z,-1.30
2019-01-10T07:25:21.822Z,-1.30
2019-01-10T07:27:51.620Z,-1.30
2019-01-10T07:30:35.281Z,-1.30
2019-01-10T07:32:57.226Z,-1.30
2019-01-10T07:35:26.616Z,-1.30
2019-01-10T07:37:59.440Z,-1.30
2019-01-10T07:40:29.292Z,-1.30
2019-01-10T07:42:58.447Z,-1.30
2019-01-10T07:45:28.389Z,-1.30
2019-01-10T07:47:58.001Z,-1.30
2019-01-10T07:50:35.138Z,-1.30
2019-01-10T07:53:07.975Z,-1.20
2019-01-10T07:55:37.630Z,-1.20
2019-01-10T07:58:06.783Z,-1.20
2019-01-10T08:00:36.175Z,-1.20
2019-01-10T08:03:05.582Z,-1.20
2019-01-10T08:05:35.314Z,-1.20
2019-01-10T08:08:05.176Z,-1.10
2019-01-10T08:10:34.564Z,-1.10
2019-01-10T08:13:03.813Z,-1.10
2019-01-10T08:15:33.206Z,-1.10
2019-01-10T08:18:02.903Z,-1.10
2019-01-10T08:20:32.195Z,-1.10
2019-01-10T08:23:01.930Z,-1.10
2019-01-10T08:25:31.135Z,-1.10
2019-01-10T08:28:00.570Z,-1.10
2019-01-10T08:30:29.943Z,-1.00
2019-01-10T08:32:59.112Z,-0.90
2019-01-10T08:35:29.211Z,-0.80
2019-01-10T08:37:58.633Z,-0.80
2019-01-10T08:40:28.027Z,-0.80
2019-01-10T08:42:57.265Z,-0.80
2019-01-10T08:45:26.723Z,-0.80
2019-01-10T08:47:56.414Z,-0.80
2019-01-10T08:50:26.772Z,-0.90
2019-01-10T08:52:56.235Z,-0.90
2019-01-10T08:55:25.637Z,-0.90
2019-01-10T08:57:55.164Z,-0.90
2019-01-10T09:00:25.323Z,-0.90
2019-01-10T09:02:55.128Z,-0.90
2019-01-10T09:05:24.245Z,-0.90
2019-01-10T09:07:53.664Z,-0.90
2019-01-10T09:10:27.649Z,-0.90
2019-01-10T09:12:57.647Z,-0.90
2019-01-10T09:15:34.246Z,-0.90
2019-01-10T09:17:58.499Z,-0.80
2019-01-10T09:20:27.904Z,-0.80
2019-01-10T09:22:57.640Z,-0.80
2019-01-10T09:25:27.081Z,-0.80
2019-01-10T09:27:56.531Z,-0.70
2019-01-10T09:30:25.650Z,-0.70
2019-01-10T09:32:54.811Z,-0.70
2019-01-10T09:35:23.923Z,-0.70
2019-01-10T09:37:53.088Z,-0.70
2019-01-10T09:40:23.656Z,-0.70
2019-01-10T09:42:53.160Z,-0.70
2019-01-10T09:45:26.403Z,-0.70
2019-01-10T09:47:55.856Z,-0.70
2019-01-10T09:50:25.311Z,-0.70
2019-01-10T09:52:55.173Z,-0.70
2019-01-10T09:55:24.956Z,-0.70
2019-01-10T09:57:54.338Z,-0.70
2019-01-10T10:00:31.522Z,-0.70
2019-01-10T10:03:01.059Z,-0.70
2019-01-10T10:05:30.456Z,-0.70
2019-01-10T10:08:00.120Z,-0.70
2019-01-10T10:10:29.635Z,-0.60
2019-01-10T10:12:59.376Z,-0.70
2019-01-10T10:15:28.548Z,-0.70
2019-01-10T10:17:57.999Z,-0.70
2019-01-10T10:20:27.250Z,-0.70
2019-01-10T10:22:56.415Z,-0.70
2019-01-10T10:25:26.178Z,-0.60
2019-01-10T10:27:55.464Z,-0.60
2019-01-10T10:30:24.974Z,-0.60
2019-01-10T10:32:54.441Z,-0.50
2019-01-10T10:35:24.654Z,-0.60
2019-01-10T10:37:53.845Z,-0.60
2019-01-10T10:40:23.367Z,-0.50
2019-01-10T10:42:53.070Z,-0.60
2019-01-10T10:45:23.146Z,-0.60
2019-01-10T10:47:52.262Z,-0.60
2019-01-10T10:50:39.776Z,-0.60
2019-01-10T10:53:09.459Z,-0.60
2019-01-10T10:55:39.167Z,-0.60
2019-01-10T10:58:08.388Z,-0.60
2019-01-10T11:00:37.646Z,-0.60
2019-01-10T11:03:06.771Z,-0.60
2019-01-10T11:05:36.040Z,-0.60
2019-01-10T11:08:05.468Z,-0.60
2019-01-10T11:10:34.636Z,-0.60
2019-01-10T11:13:03.754Z,-0.50
2019-01-10T11:15:33.174Z,-0.50
2019-01-10T11:18:02.571Z,-0.50
2019-01-10T11:20:31.808Z,-0.50
2019-01-10T11:23:10.216Z,-0.50
2019-01-10T11:25:32.386Z,-0.50
2019-01-10T11:28:01.607Z,-0.50
2019-01-10T11:30:30.843Z,-0.50
2019-01-10T11:33:00.247Z,-0.60
2019-01-10T11:35:29.706Z,-0.60
2019-01-10T11:37:59.103Z,-0.50
2019-01-10T11:40:29.102Z,-0.50
2019-01-10T11:42:58.495Z,-0.50
2019-01-10T11:45:28.663Z,-0.50
2019-01-10T11:47:58.194Z,-0.40
2019-01-10T11:50:27.359Z,-0.50
2019-01-10T11:52:56.685Z,-0.50
2019-01-10T11:55:26.102Z,-0.50
2019-01-10T11:57:55.787Z,-0.50
2019-01-10T12:00:34.809Z,-0.50
2019-01-10T12:03:06.021Z,-0.50
2019-01-10T12:05:36.151Z,-0.50
2019-01-10T12:08:05.558Z,-0.50
2019-01-10T12:10:35.359Z,-0.50
2019-01-10T12:13:04.495Z,-0.60
2019-01-10T12:15:33.928Z,-0.60
2019-01-10T12:18:03.059Z,-0.60
2019-01-10T12:20:32.223Z,-0.50
2019-01-10T12:23:01.359Z,-0.50
2019-01-10T12:25:30.871Z,-0.50
2019-01-10T12:28:00.064Z,-0.50
2019-01-10T12:30:29.549Z,-0.50
2019-01-10T12:32:58.671Z,-0.50
2019-01-10T12:35:27.832Z,-0.50
2019-01-10T12:37:57.320Z,-0.50
2019-01-10T12:40:26.491Z,-0.50
2019-01-10T12:42:55.960Z,-0.50
2019-01-10T12:45:25.135Z,-0.50
2019-01-10T12:47:54.520Z,-0.50
2019-01-10T12:50:32.372Z,-0.50
2019-01-10T12:53:04.329Z,-0.50
2019-01-10T12:55:33.743Z,-0.50
2019-01-10T12:58:02.882Z,-0.50
2019-01-10T13:00:32.388Z,-0.50
2019-01-10T13:03:01.511Z,-0.50
2019-01-10T13:05:30.966Z,-0.40
2019-01-10T13:08:03.887Z,-0.50
2019-01-10T13:10:31.514Z,-0.50
2019-01-10T13:13:00.914Z,-0.50
2019-01-10T13:15:30.422Z,-0.50
2019-01-10T13:17:59.604Z,-0.40
2019-01-10T13:20:28.774Z,-0.40
2019-01-10T13:22:58.607Z,-0.40
2019-01-10T13:25:27.795Z,-0.40
2019-01-10T13:27:57.384Z,-0.40
2019-01-10T13:30:27.436Z,-0.40
2019-01-10T13:32:57.563Z,-0.40
2019-01-10T13:35:27.627Z,-0.40
2019-01-10T13:37:57.186Z,-0.40
2019-01-10T13:40:26.368Z,-0.40
2019-01-10T13:42:55.560Z,-0.40
2019-01-10T13:45:24.998Z,-0.40
2019-01-10T13:47:54.127Z,-0.40
2019-01-10T13:50:26.039Z,-0.40
2019-01-10T13:52:55.230Z,-0.40
2019-01-10T13:55:24.395Z,-0.40
2019-01-10T13:57:53.543Z,-0.50
2019-01-10T14:00:24.951Z,-0.50
2019-01-10T14:02:54.194Z,-0.50
2019-01-10T14:05:23.416Z,-0.50
2019-01-10T14:07:53.148Z,-0.50
2019-01-10T14:10:22.567Z,-0.50
2019-01-10T14:12:52.000Z,-0.50
2019-01-10T14:15:26.723Z,-0.50
2019-01-10T14:17:55.880Z,-0.50
2019-01-10T14:20:25.007Z,-0.50
2019-01-10T14:22:54.428Z,-0.50
2019-01-10T14:25:24.043Z,-0.50
2019-01-10T14:27:59.356Z,-0.50
2019-01-10T14:30:36.294Z,-0.50
2019-01-10T14:33:05.898Z,-0.50
2019-01-10T14:35:35.319Z,-0.50
2019-01-10T14:38:05.443Z,-0.60
2019-01-10T14:40:34.652Z,-0.60
2019-01-10T14:43:04.248Z,-0.60
2019-01-10T14:45:35.851Z,-0.60
2019-01-10T14:48:05.300Z,-0.60
2019-01-10T14:50:34.586Z,-0.60
2019-01-10T14:53:03.760Z,-0.60
2019-01-10T14:55:32.962Z,-0.70
2019-01-10T14:58:02.121Z,-0.70
2019-01-10T15:00:31.382Z,-0.70
2019-01-10T15:03:00.823Z,-0.70
2019-01-10T15:05:34.290Z,-0.70
2019-01-10T15:08:01.432Z,-0.70
2019-01-10T15:10:31.251Z,-0.70
2019-01-10T15:13:01.503Z,-0.80
2019-01-10T15:15:31.036Z,-0.80
2019-01-10T15:18:00.439Z,-0.80
2019-01-10T15:20:31.499Z,-0.80
2019-01-10T15:23:00.662Z,-0.80
2019-01-10T15:25:29.774Z,-0.80
2019-01-10T15:27:58.927Z,-0.80
2019-01-10T15:30:29.323Z,-0.80
2019-01-10T15:32:58.539Z,-0.80
2019-01-10T15:35:27.687Z,-0.80
2019-01-10T15:37:57.100Z,-0.90
2019-01-10T15:40:30.655Z,-0.90
2019-01-10T15:42:59.887Z,-0.90
2019-01-10T15:45:29.292Z,-0.90
2019-01-10T15:47:59.098Z,-0.90
2019-01-10T15:50:29.080Z,-0.90
2019-01-10T15:52:58.290Z,-0.90
2019-01-10T15:55:27.683Z,-0.90
2019-01-10T15:57:57.127Z,-0.90
2019-01-10T16:00:26.843Z,-0.90
2019-01-10T16:02:56.594Z,-0.90
2019-01-10T16:05:25.783Z,-0.90
2019-01-10T16:07:55.599Z,-0.90
2019-01-10T16:10:24.987Z,-0.90
2019-01-10T16:12:54.543Z,-0.90
2019-01-10T16:15:25.002Z,-0.90
2019-01-10T16:17:54.243Z,-0.90
2019-01-10T16:20:23.407Z,-1.00
2019-01-10T16:22:52.863Z,-1.00
2019-01-10T16:25:21.979Z,-1.00
2019-01-10T16:27:51.495Z,-1.00
2019-01-10T16:30:28.791Z,-1.00
2019-01-10T16:32:58.723Z,-1.00
2019-01-10T16:35:27.912Z,-1.00
2019-01-10T16:37:57.557Z,-1.00
2019-01-10T16:40:26.947Z,-1.10
2019-01-10T16:42:56.146Z,-1.10
2019-01-10T16:45:32.547Z,-1.10
2019-01-10T16:48:02.467Z,-1.10
2019-01-10T16:50:31.663Z,-1.10
2019-01-10T16:53:01.239Z,-1.10
2019-01-10T16:55:30.354Z,-1.10
2019-01-10T16:57:59.558Z,-1.10
2019-01-10T17:00:30.802Z,-1.20
2019-01-10T17:03:00.374Z,-1.20
2019-01-10T17:05:29.627Z,-1.10
2019-01-10T17:07:58.947Z,-1.10
2019-01-10T17:10:28.371Z,-1.10
2019-01-10T17:12:57.852Z,-1.20
2019-01-10T17:15:27.168Z,-1.20
2019-01-10T17:17:56.490Z,-1.20
2019-01-10T17:20:26.739Z,-1.20
2019-01-10T17:22:56.038Z,-1.20
2019-01-10T17:25:25.431Z,-1.20
2019-01-10T17:27:54.619Z,-1.20
2019-01-10T17:30:29.147Z,-1.20
2019-01-10T17:32:58.767Z,-1.20
2019-01-10T17:35:30.366Z,-1.30
2019-01-10T17:37:59.639Z,-1.30
2019-01-10T17:40:28.939Z,-1.30
2019-01-10T17:42:58.631Z,-1.30
2019-01-10T17:45:30.137Z,-1.30
2019-01-10T17:47:59.628Z,-1.30
2019-01-10T17:50:29.520Z,-1.30
2019-01-10T17:52:58.719Z,-1.30
2019-01-10T17:55:28.481Z,-1.30
2019-01-10T17:57:57.973Z,-1.30
2019-01-10T18:00:29.115Z,-1.30
2019-01-10T18:02:58.306Z,-1.30
2019-01-10T18:05:27.899Z,-1.30
2019-01-10T18:07:58.437Z,-1.30
2019-01-10T18:10:27.899Z,-1.30
2019-01-10T18:12:57.096Z,-1.40
2019-01-10T18:15:26.522Z,-1.40
2019-01-10T18:17:55.639Z,-1.40
2019-01-10T18:20:33.731Z,-1.40
2019-01-10T18:23:03.183Z,-1.40
2019-01-10T18:25:32.927Z,-1.40
2019-01-10T18:28:02.852Z,-1.40
2019-01-10T18:30:32.864Z,-1.40
2019-01-10T18:33:01.987Z,-1.40
2019-01-10T18:35:31.699Z,-1.40
2019-01-10T18:38:00.814Z,-1.40
2019-01-10T18:40:30.270Z,-1.40
2019-01-10T18:42:59.912Z,-1.40
2019-01-10T18:45:31.331Z,-1.40
2019-01-10T18:48:00.451Z,-1.40
2019-01-10T18:50:29.636Z,-1.40
2019-01-10T18:52:58.762Z,-1.40
2019-01-10T18:55:28.972Z,-1.40
2019-01-10T18:57:58.523Z,-1.40
2019-01-10T19:00:29.436Z,-1.40
2019-01-10T19:02:59.526Z,-1.40
2019-01-10T19:05:29.904Z,-1.40
2019-01-10T19:07:59.375Z,-1.40
2019-01-10T19:10:28.896Z,-1.40
2019-01-10T19:12:58.291Z,-1.40
2019-01-10T19:15:27.527Z,-1.50
2019-01-10T19:18:03.161Z,-1.50
2019-01-10T19:20:29.066Z,-1.50
2019-01-10T19:23:00.347Z,-1.50
2019-01-10T19:25:29.711Z,-1.50
2019-01-10T19:27:59.216Z,-1.50
2019-01-10T19:30:31.452Z,-1.50
2019-01-10T19:33:01.374Z,-1.50
2019-01-10T19:35:31.402Z,-1.50
2019-01-10T19:38:01.141Z,-1.50
2019-01-10T19:40:30.451Z,-1.50
2019-01-10T19:42:59.575Z,-1.50
2019-01-10T19:45:29.078Z,-1.50
2019-01-10T19:47:58.735Z,-1.50
2019-01-10T19:50:28.147Z,-1.50
2019-01-10T19:52:57.883Z,-1.50
2019-01-10T19:55:27.804Z,-1.60
2019-01-10T19:57:57.371Z,-1.60
2019-01-10T20:00:34.981Z,-1.60
2019-01-10T20:03:04.479Z,-1.60
2019-01-10T20:05:34.116Z,-1.60
2019-01-10T20:08:04.387Z,-1.60
2019-01-10T20:10:33.631Z,-1.60
2019-01-10T20:13:03.143Z,-1.50
2019-01-10T20:15:32.627Z,-1.60
2019-01-10T20:18:01.881Z,-1.50
2019-01-10T20:20:36.391Z,-1.50
2019-01-10T20:23:07.552Z,-1.50
2019-01-10T20:25:37.649Z,-1.60
2019-01-10T20:28:07.024Z,-1.60
2019-01-10T20:30:36.453Z,-1.60
2019-01-10T20:33:05.948Z,-1.60
2019-01-10T20:35:35.691Z,-1.60
2019-01-10T20:38:05.185Z,-1.60
2019-01-10T20:40:34.568Z,-1.60
2019-01-10T20:43:04.293Z,-1.60
2019-01-10T20:45:33.679Z,-1.60
2019-01-10T20:48:03.152Z,-1.60
2019-01-10T20:50:32.279Z,-1.60
2019-01-10T20:53:01.446Z,-1.60
2019-01-10T20:55:30.843Z,-1.60
2019-01-10T20:58:00.017Z,-1.60
2019-01-10T21:00:30.315Z,-1.60
2019-01-10T21:02:59.772Z,-1.60
2019-01-10T21:05:29.294Z,-1.60
2019-01-10T21:07:58.802Z,-1.60
2019-01-10T21:10:28.554Z,-1.60
2019-01-10T21:12:58.064Z,-1.60
2019-01-10T21:15:30.067Z,-1.60
2019-01-10T21:17:59.237Z,-1.60
2019-01-10T21:20:28.433Z,-1.60
2019-01-10T21:22:59.651Z,-1.60
2019-01-10T21:25:29.427Z,-1.60
2019-01-10T21:27:59.922Z,-1.60
2019-01-10T21:30:29.381Z,-1.60
2019-01-10T21:32:59.475Z,-1.70
2019-01-10T21:35:28.859Z,-1.70
2019-01-10T21:37:58.553Z,-1.70
2019-01-10T21:40:29.580Z,-1.70
2019-01-10T21:42:58.999Z,-1.70
2019-01-10T21:45:28.175Z,-1.70
2019-01-10T21:47:57.874Z,-1.70
2019-01-10T21:50:27.272Z,-1.70
2019-01-10T21:52:56.693Z,-1.70
2019-01-10T21:55:26.059Z,-1.70
2019-01-10T21:57:55.788Z,-1.80
2019-01-10T22:00:27.054Z,-1.80
2019-01-10T22:02:58.168Z,-1.80
2019-01-10T22:05:27.311Z,-1.80
2019-01-10T22:07:56.577Z,-1.80
2019-01-10T22:10:25.726Z,-1.80
2019-01-10T22:12:55.491Z,-1.80
2019-01-10T22:15:24.865Z,-1.80
2019-01-10T22:17:54.172Z,-1.80
2019-01-10T22:20:23.386Z,-1.80
2019-01-10T22:22:52.551Z,-1.80
2019-01-10T22:25:22.010Z,-1.80
2019-01-10T22:27:52.596Z,-1.80
2019-01-10T22:30:22.762Z,-1.80
2019-01-10T22:32:51.924Z,-1.80
2019-01-10T22:35:22.540Z,-1.80
2019-01-10T22:37:52.226Z,-1.80
2019-01-10T22:40:22.726Z,-1.80
2019-01-10T22:42:52.414Z,-1.80
2019-01-10T22:45:22.123Z,-1.90
2019-01-10T22:47:51.627Z,-1.80
2019-01-10T22:50:22.413Z,-1.80
2019-01-10T22:52:51.858Z,-1.90
2019-01-10T22:55:20.978Z,-1.90
2019-01-10T22:57:50.163Z,-1.90
2019-01-10T23:01:21.029Z,-1.90
2019-01-10T23:03:50.460Z,-2.00
2019-01-10T23:06:19.911Z,-2.00
2019-01-10T23:08:49.546Z,-2.00
2019-01-10T23:11:25.410Z,-2.00
2019-01-10T23:13:59.050Z,-2.00
2019-01-10T23:16:29.427Z,-2.10
2019-01-10T23:18:58.918Z,-2.10
2019-01-10T23:21:29.012Z,-2.10
2019-01-10T23:24:01.711Z,-2.10
2019-01-10T23:26:31.111Z,-2.10
2019-01-10T23:29:00.535Z,-2.20
2019-01-10T23:31:30.234Z,-2.20
2019-01-10T23:34:08.724Z,-2.20
2019-01-10T23:36:38.231Z,-2.30
2019-01-10T23:39:20.974Z,-2.30
2019-01-10T23:41:50.926Z,-2.30
2019-01-10T23:44:20.235Z,-2.30
2019-01-10T23:46:49.626Z,-2.30
2019-01-10T23:49:18.783Z,-2.30
2019-01-10T23:51:47.971Z,-2.30
2019-01-10T23:54:18.527Z,-2.30
2019-01-10T23:56:47.971Z,-2.30
2019-01-10T23:59:17.454Z,-2.30
